Time;durP1;ratioP1;P1;durP2;ratioP2;P2;SDS_P1;SDS_P2;PMS_P1;PMS_P2;Temp;Humidity;BMP_temperature;BMP_pressure;BME280_temperature;BME280_humidity;BME280_pressure;Samples;Min_cycle;Max_cycle;Signal;HPM_P1;HPM_P2
2023/04/26 00:02:14;;;;;;;4.50;3.78;;;;;;;;;;5023402;28;20030;-71
2023/04/26 00:04:40;;;;;;;6.57;3.47;;;;;;;;;;5020907;28;20022;-71
2023/04/26 00:07:07;;;;;;;8.43;3.20;;;;;;;;;;5022778;28;20069;-71
2023/04/26 00:09:33;;;;;;;5.55;3.30;;;;;;;;;;5021437;28;20014;-71
2023/04/26 00:12:00;;;;;;;7.03;3.85;;;;;;;;;;5021166;28;20035;-72
2023/04/26 00:14:26;;;;;;;8.38;4.70;;;;;;;;;;5026078;28;20171;-71
2023/04/26 00:16:52;;;;;;;9.63;5.85;;;;;;;;;;5024702;28;20036;-72
2023/04/26 00:19:18;;;;;;;5.80;3.97;;;;;;;;;;5017333;28;20086;-72
2023/04/26 00:21:44;;;;;;;5.72;3.47;;;;;;;;;;5026344;28;20029;-72
2023/04/26 00:24:11;;;;;;;8.40;3.58;;;;;;;;;;5017124;28;20030;-71
2023/04/26 00:26:37;;;;;;;8.05;3.85;;;;;;;;;;5027483;28;20025;-72
2023/04/26 00:29:06;;;;;;;4.88;3.38;;;;;;;;;;5012596;28;20033;-71
2023/04/26 00:31:32;;;;;;;6.28;3.63;;;;;;;;;;5008627;28;20514;-72
2023/04/26 00:33:58;;;;;;;7.75;3.60;;;;;;;;;;5023961;28;20037;-72
2023/04/26 00:36:25;;;;;;;6.40;3.60;;;;;;;;;;5021495;28;20029;-72
2023/04/26 00:38:51;;;;;;;7.30;3.80;;;;;;;;;;5016569;28;20041;-72
2023/04/26 00:41:17;;;;;;;6.22;3.78;;;;;;;;;;5023521;28;20021;-73
2023/04/26 00:43:44;;;;;;;5.55;3.63;;;;;;;;;;5017469;28;20034;-72
2023/04/26 00:46:11;;;;;;;7.80;3.80;;;;;;;;;;5021951;28;20024;-71
2023/04/26 00:48:37;;;;;;;6.35;3.55;;;;;;;;;;5020365;28;20080;-73
2023/04/26 00:51:04;;;;;;;5.65;3.90;;;;;;;;;;5015207;28;20033;-71
2023/04/26 00:53:30;;;;;;;6.47;3.05;;;;;;;;;;5018334;28;20114;-71
2023/04/26 00:55:57;;;;;;;8.27;4.32;;;;;;;;;;5014702;28;20141;-72
2023/04/26 00:58:23;;;;;;;12.98;4.35;;;;;;;;;;5021890;28;20041;-71
2023/04/26 01:00:50;;;;;;;5.28;3.75;;;;;;;;;;5016737;28;20462;-71
2023/04/26 01:03:16;;;;;;;6.63;4.28;;;;;;;;;;5023100;28;20033;-72
2023/04/26 01:05:43;;;;;;;8.27;4.45;;;;;;;;;;5021760;28;20028;-72
2023/04/26 01:08:09;;;;;;;7.88;3.90;;;;;;;;;;5013406;28;20053;-72
2023/04/26 01:10:35;;;;;;;5.53;3.97;;;;;;;;;;5022562;28;20284;-71
2023/04/26 01:13:02;;;;;;;7.95;3.63;;;;;;;;;;5021003;28;20026;-71
2023/04/26 01:15:29;;;;;;;6.30;3.90;;;;;;;;;;5021803;28;20034;-72
2023/04/26 01:17:56;;;;;;;10.15;4.18;;;;;;;;;;5013114;28;20161;-71
2023/04/26 01:20:23;;;;;;;5.32;4.00;;;;;;;;;;5024529;28;20045;-72
2023/04/26 01:22:49;;;;;;;6.00;4.22;;;;;;;;;;5020403;28;20021;-72
2023/04/26 01:25:16;;;;;;;8.05;4.00;;;;;;;;;;5018356;28;20057;-71
2023/04/26 01:27:42;;;;;;;5.75;3.92;;;;;;;;;;5020229;28;20892;-72
2023/04/26 01:30:08;;;;;;;5.43;3.78;;;;;;;;;;5016673;28;20030;-71
2023/04/26 01:32:34;;;;;;;8.70;4.05;;;;;;;;;;5008957;28;20071;-72
2023/04/26 01:35:01;;;;;;;7.75;3.63;;;;;;;;;;5027723;28;20400;-72
2023/04/26 01:37:27;;;;;;;4.85;3.55;;;;;;;;;;5017449;28;20021;-72
2023/04/26 01:39:53;;;;;;;6.30;4.32;;;;;;;;;;5016575;28;20562;-71
2023/04/26 01:42:19;;;;;;;8.95;4.05;;;;;;;;;;5020506;28;20034;-71
2023/04/26 01:44:45;;;;;;;5.90;3.50;;;;;;;;;;5014884;28;20041;-70
2023/04/26 01:47:11;;;;;;;9.02;4.10;;;;;;;;;;5022246;28;20056;-72
2023/04/26 01:49:38;;;;;;;7.22;3.55;;;;;;;;;;5020912;28;20428;-71
2023/04/26 01:52:04;;;;;;;8.60;3.95;;;;;;;;;;5019054;28;20037;-71
2023/04/26 01:54:30;;;;;;;7.47;3.95;;;;;;;;;;5016312;28;20030;-71
2023/04/26 01:56:56;;;;;;;6.50;3.90;;;;;;;;;;5012593;28;20046;-71
2023/04/26 01:59:22;;;;;;;4.38;3.20;;;;;;;;;;5025272;28;20036;-71
2023/04/26 02:01:48;;;;;;;5.95;3.20;;;;;;;;;;5021093;28;20056;-71
2023/04/26 02:04:14;;;;;;;5.45;3.50;;;;;;;;;;5022171;28;20029;-71
2023/04/26 02:06:41;;;;;;;6.68;3.30;;;;;;;;;;5016971;28;20468;-72
2023/04/26 02:09:10;;;;;;;11.60;3.70;;;;;;;;;;5012425;28;20025;-72
2023/04/26 02:11:36;;;;;;;7.28;4.07;;;;;;;;;;5022281;28;20422;-72
2023/04/26 02:14:02;;;;;;;6.72;3.92;;;;;;;;;;5025815;28;20053;-72
2023/04/26 02:16:28;;;;;;;7.80;4.07;;;;;;;;;;5015571;28;20040;-72
2023/04/26 02:18:54;;;;;;;6.10;3.60;;;;;;;;;;5015475;28;20522;-72
2023/04/26 02:21:21;;;;;;;8.40;4.10;;;;;;;;;;5025247;28;20112;-71
2023/04/26 02:23:47;;;;;;;6.75;3.42;;;;;;;;;;5023828;28;20021;-73
2023/04/26 02:26:13;;;;;;;4.57;3.20;;;;;;;;;;5021642;28;20061;-72
2023/04/26 02:28:40;;;;;;;4.82;3.50;;;;;;;;;;5009733;28;20315;-72
2023/04/26 02:31:07;;;;;;;5.03;4.15;;;;;;;;;;5017241;28;20028;-72
2023/04/26 02:33:33;;;;;;;8.25;3.45;;;;;;;;;;5010619;28;20021;-72
2023/04/26 02:36:02;;;;;;;9.73;3.30;;;;;;;;;;5027937;28;20033;-72
2023/04/26 02:38:28;;;;;;;6.82;3.72;;;;;;;;;;5019376;28;20108;-72
2023/04/26 02:40:58;;;;;;;5.50;3.67;;;;;;;;;;5005945;28;20538;-71
2023/04/26 02:43:24;;;;;;;5.65;3.53;;;;;;;;;;5012957;28;20087;-72
2023/04/26 02:45:50;;;;;;;3.53;3.15;;;;;;;;;;5019291;28;20476;-74
2023/04/26 02:48:17;;;;;;;8.75;3.97;;;;;;;;;;5024309;28;20030;-72
2023/04/26 02:50:43;;;;;;;6.57;3.47;;;;;;;;;;5021352;28;20399;-72
2023/04/26 02:53:09;;;;;;;6.90;4.00;;;;;;;;;;5015267;28;20033;-71
2023/04/26 02:55:35;;;;;;;7.95;3.65;;;;;;;;;;5013153;28;20116;-70
2023/04/26 02:58:01;;;;;;;8.45;4.38;;;;;;;;;;5011710;28;20050;-72
2023/04/26 03:00:27;;;;;;;4.55;3.20;;;;;;;;;;5018253;28;20104;-71
2023/04/26 03:02:53;;;;;;;4.68;3.53;;;;;;;;;;5019014;28;20036;-72
2023/04/26 03:05:19;;;;;;;6.60;3.25;;;;;;;;;;5012332;28;20032;-71
2023/04/26 03:07:45;;;;;;;3.67;3.30;;;;;;;;;;5018925;28;20059;-73
2023/04/26 03:10:12;;;;;;;4.88;3.20;;;;;;;;;;5025576;28;20041;-71
2023/04/26 03:12:38;;;;;;;4.20;3.63;;;;;;;;;;5018861;28;20030;-72
2023/04/26 03:15:04;;;;;;;4.45;3.85;;;;;;;;;;5026864;28;20026;-71
2023/04/26 03:17:30;;;;;;;5.20;3.05;;;;;;;;;;5022847;28;20036;-72
2023/04/26 03:19:56;;;;;;;7.30;3.58;;;;;;;;;;5026897;28;20033;-71
2023/04/26 03:22:23;;;;;;;5.70;3.63;;;;;;;;;;5020958;28;20045;-72
2023/04/26 03:24:49;;;;;;;5.40;3.47;;;;;;;;;;5026250;28;20064;-72
2023/04/26 03:27:15;;;;;;;5.22;3.42;;;;;;;;;;5023472;28;20029;-71
2023/04/26 03:29:41;;;;;;;5.80;3.50;;;;;;;;;;5020870;28;20025;-72
2023/04/26 03:32:07;;;;;;;4.05;3.67;;;;;;;;;;5020592;28;20481;-72
2023/04/26 03:34:33;;;;;;;5.82;3.60;;;;;;;;;;5025559;28;20030;-72
2023/04/26 03:36:59;;;;;;;11.48;4.50;;;;;;;;;;5021436;28;20080;-72
2023/04/26 03:39:26;;;;;;;6.80;3.28;;;;;;;;;;5023614;28;20042;-72
2023/04/26 03:41:52;;;;;;;5.88;3.50;;;;;;;;;;5022955;28;20108;-72
2023/04/26 03:44:18;;;;;;;4.47;3.58;;;;;;;;;;5024895;28;20025;-72
2023/04/26 03:46:44;;;;;;;4.53;3.08;;;;;;;;;;5027792;28;20364;-72
2023/04/26 03:49:10;;;;;;;4.20;3.42;;;;;;;;;;5029043;28;20029;-69
2023/04/26 03:51:36;;;;;;;5.07;3.45;;;;;;;;;;5016653;28;20054;-72
2023/04/26 03:54:02;;;;;;;4.32;3.70;;;;;;;;;;5018709;28;20030;-72
2023/04/26 03:56:28;;;;;;;6.88;3.50;;;;;;;;;;5016409;28;20053;-72
2023/04/26 03:58:54;;;;;;;7.47;3.30;;;;;;;;;;5022428;28;20029;-71
2023/04/26 04:01:21;;;;;;;6.47;3.60;;;;;;;;;;5020512;28;20025;-72
2023/04/26 04:03:47;;;;;;;4.65;3.08;;;;;;;;;;5028017;28;20109;-71
2023/04/26 04:06:13;;;;;;;7.78;4.00;;;;;;;;;;5026234;28;20030;-70
2023/04/26 04:08:39;;;;;;;7.80;3.90;;;;;;;;;;5025450;28;20056;-72
2023/04/26 04:11:05;;;;;;;4.97;3.25;;;;;;;;;;5017712;28;20029;-72
2023/04/26 04:13:31;;;;;;;5.10;3.50;;;;;;;;;;5019333;28;20080;-71
2023/04/26 04:15:57;;;;;;;5.97;3.42;;;;;;;;;;5023314;28;20112;-71
2023/04/26 04:18:23;;;;;;;6.93;3.78;;;;;;;;;;5024534;28;20055;-72
2023/04/26 04:20:49;;;;;;;7.30;3.72;;;;;;;;;;5021146;28;20033;-71
2023/04/26 04:23:16;;;;;;;6.20;3.72;;;;;;;;;;5023477;28;20353;-72
2023/04/26 04:25:42;;;;;;;8.60;4.65;;;;;;;;;;5024411;28;20109;-70
2023/04/26 04:28:10;;;;;;;5.40;3.67;;;;;;;;;;5025578;28;20022;-72
2023/04/26 04:30:36;;;;;;;8.77;3.55;;;;;;;;;;5022414;28;20098;-71
2023/04/26 04:33:03;;;;;;;7.18;4.18;;;;;;;;;;5024244;28;20076;-71
2023/04/26 04:35:32;;;;;;;4.57;3.20;;;;;;;;;;5028396;28;20079;-71
2023/04/26 04:37:58;;;;;;;9.25;3.78;;;;;;;;;;5016978;28;20033;-71
2023/04/26 04:40:25;;;;;;;5.72;3.63;;;;;;;;;;5026232;28;20113;-72
2023/04/26 04:42:52;;;;;;;12.75;4.13;;;;;;;;;;5015183;28;20025;-71
2023/04/26 04:45:19;;;;;;;5.22;3.92;;;;;;;;;;5023487;28;20028;-72
2023/04/26 04:47:46;;;;;;;12.93;4.97;;;;;;;;;;5012437;28;20029;-72
2023/04/26 04:50:13;;;;;;;8.50;3.58;;;;;;;;;;5019613;28;20065;-72
2023/04/26 04:52:40;;;;;;;7.15;4.40;;;;;;;;;;5019858;28;20511;-71
2023/04/26 04:55:06;;;;;;;7.25;3.80;;;;;;;;;;5018773;28;20052;-72
2023/04/26 04:57:32;;;;;;;4.97;3.58;;;;;;;;;;5024616;28;20069;-71
2023/04/26 05:00:02;;;;;;;6.35;3.45;;;;;;;;;;5016676;28;20041;-71
2023/04/26 05:02:30;;;;;;;4.82;3.75;;;;;;;;;;5023354;28;20395;-71
2023/04/26 05:04:56;;;;;;;11.80;4.00;;;;;;;;;;5023925;28;20109;-71
2023/04/26 05:07:22;;;;;;;5.88;3.70;;;;;;;;;;5024760;28;20029;-72
2023/04/26 05:09:48;;;;;;;7.40;4.45;;;;;;;;;;5023712;28;20049;-71
2023/04/26 05:12:14;;;;;;;4.25;3.75;;;;;;;;;;5013458;28;20484;-71
2023/04/26 05:14:40;;;;;;;4.93;3.75;;;;;;;;;;5024472;28;20037;-72
2023/04/26 05:17:07;;;;;;;14.73;4.38;;;;;;;;;;5018848;28;20079;-72
2023/04/26 05:19:33;;;;;;;7.07;4.78;;;;;;;;;;5013060;28;20427;-71
2023/04/26 05:21:59;;;;;;;4.70;3.50;;;;;;;;;;5022913;28;20482;-72
2023/04/26 05:24:25;;;;;;;6.13;3.80;;;;;;;;;;5022975;28;20055;-71
2023/04/26 05:26:51;;;;;;;7.63;4.07;;;;;;;;;;5020702;28;20026;-72
2023/04/26 05:29:17;;;;;;;7.20;3.88;;;;;;;;;;5020148;28;20163;-72
2023/04/26 05:31:43;;;;;;;6.28;4.30;;;;;;;;;;5016313;28;20129;-72
2023/04/26 05:34:10;;;;;;;5.55;3.70;;;;;;;;;;5017983;28;20116;-73
2023/04/26 05:36:36;;;;;;;7.50;4.50;;;;;;;;;;5018804;28;20518;-72
2023/04/26 05:39:04;;;;;;;6.10;4.22;;;;;;;;;;5015164;28;20077;-73
2023/04/26 05:41:31;;;;;;;7.75;3.75;;;;;;;;;;5005061;28;20056;-72
2023/04/26 05:43:57;;;;;;;13.10;4.65;;;;;;;;;;5022288;28;20033;-73
2023/04/26 05:46:23;;;;;;;5.93;3.38;;;;;;;;;;5021695;28;20018;-73
2023/04/26 05:48:50;;;;;;;5.07;3.90;;;;;;;;;;5018284;28;20084;-72
2023/04/26 05:51:16;;;;;;;6.75;3.92;;;;;;;;;;5013509;28;20394;-73
2023/04/26 05:53:42;;;;;;;8.75;4.20;;;;;;;;;;5019249;28;20029;-73
2023/04/26 05:56:09;;;;;;;8.60;4.45;;;;;;;;;;5014524;28;20050;-72
2023/04/26 05:58:35;;;;;;;7.65;4.35;;;;;;;;;;5024929;28;20044;-72
2023/04/26 06:01:01;;;;;;;6.28;3.50;;;;;;;;;;5019179;28;20483;-73
2023/04/26 06:03:27;;;;;;;6.72;4.00;;;;;;;;;;5013986;28;20480;-74
2023/04/26 06:05:53;;;;;;;7.32;4.25;;;;;;;;;;5019379;28;20078;-73
2023/04/26 06:08:20;;;;;;;9.65;3.97;;;;;;;;;;5014640;28;20033;-72
2023/04/26 06:10:46;;;;;;;7.72;3.70;;;;;;;;;;5018137;28;20041;-73
2023/04/26 06:13:12;;;;;;;7.60;3.85;;;;;;;;;;5015751;28;20051;-73
2023/04/26 06:15:38;;;;;;;5.53;3.95;;;;;;;;;;5020030;28;20033;-73
2023/04/26 06:18:05;;;;;;;10.57;4.28;;;;;;;;;;5014909;28;20052;-72
2023/04/26 06:20:31;;;;;;;6.80;4.22;;;;;;;;;;5015774;28;20029;-72
2023/04/26 06:22:57;;;;;;;7.13;4.10;;;;;;;;;;5018301;28;20553;-73
2023/04/26 06:25:23;;;;;;;6.97;3.40;;;;;;;;;;5018685;28;20018;-73
2023/04/26 06:27:50;;;;;;;6.72;4.13;;;;;;;;;;5015305;28;20024;-73
2023/04/26 06:30:16;;;;;;;7.28;3.80;;;;;;;;;;5014909;28;20044;-73
2023/04/26 06:32:42;;;;;;;8.02;3.90;;;;;;;;;;5014555;28;20084;-73
2023/04/26 06:35:09;;;;;;;7.90;3.92;;;;;;;;;;5020344;28;20463;-73
2023/04/26 06:37:35;;;;;;;5.80;3.75;;;;;;;;;;5018603;28;20022;-74
2023/04/26 06:40:01;;;;;;;6.38;4.68;;;;;;;;;;5014144;28;20448;-73
2023/04/26 06:42:27;;;;;;;6.32;3.70;;;;;;;;;;5020729;28;20116;-74
2023/04/26 06:44:53;;;;;;;7.43;4.10;;;;;;;;;;5013474;28;20061;-73
2023/04/26 06:47:19;;;;;;;8.32;4.03;;;;;;;;;;5011981;28;20026;-73
2023/04/26 06:49:45;;;;;;;6.40;4.18;;;;;;;;;;5018338;28;20349;-73
2023/04/26 06:52:11;;;;;;;4.95;3.75;;;;;;;;;;5024468;28;20112;-73
2023/04/26 06:54:37;;;;;;;7.45;4.28;;;;;;;;;;5013542;28;20026;-72
2023/04/26 06:57:04;;;;;;;9.38;4.07;;;;;;;;;;5018399;28;20060;-72
2023/04/26 06:59:30;;;;;;;6.93;4.10;;;;;;;;;;5019960;28;20537;-74
2023/04/26 07:01:56;;;;;;;6.88;3.92;;;;;;;;;;5014836;28;20120;-73
2023/04/26 07:04:22;;;;;;;9.90;4.30;;;;;;;;;;5014973;28;20487;-73
2023/04/26 07:06:49;;;;;;;4.20;3.60;;;;;;;;;;5030286;28;20049;-75
2023/04/26 07:09:15;;;;;;;6.15;4.07;;;;;;;;;;5019100;28;20024;-73
2023/04/26 07:11:41;;;;;;;4.80;4.28;;;;;;;;;;5017569;28;20037;-73
2023/04/26 07:14:07;;;;;;;8.70;3.55;;;;;;;;;;5013520;28;20026;-73
2023/04/26 07:16:33;;;;;;;9.50;3.80;;;;;;;;;;5007671;28;20046;-74
2023/04/26 07:18:59;;;;;;;9.98;3.97;;;;;;;;;;5014724;28;20038;-74
2023/04/26 07:21:26;;;;;;;5.20;3.28;;;;;;;;;;5026879;28;20037;-73
2023/04/26 07:23:55;;;;;;;5.35;3.70;;;;;;;;;;5024963;28;20032;-74
2023/04/26 07:26:22;;;;;;;6.35;3.63;;;;;;;;;;5011284;28;20498;-74
2023/04/26 07:28:48;;;;;;;7.50;3.72;;;;;;;;;;5021736;28;20033;-73
2023/04/26 07:31:14;;;;;;;8.98;3.70;;;;;;;;;;5016922;28;20077;-73
2023/04/26 07:33:40;;;;;;;5.18;3.72;;;;;;;;;;5020974;28;20018;-74
2023/04/26 07:36:06;;;;;;;6.82;3.75;;;;;;;;;;5014242;28;20137;-73
2023/04/26 07:38:32;;;;;;;5.75;3.38;;;;;;;;;;5014005;28;20479;-73
2023/04/26 07:41:00;;;;;;;6.32;3.13;;;;;;;;;;5013102;28;20044;-74
2023/04/26 07:43:26;;;;;;;11.35;4.00;;;;;;;;;;5020380;28;20055;-73
2023/04/26 07:45:52;;;;;;;12.18;4.30;;;;;;;;;;5008863;28;20026;-73
2023/04/26 07:48:18;;;;;;;8.38;3.60;;;;;;;;;;5022098;28;20387;-74
2023/04/26 07:50:45;;;;;;;6.55;3.67;;;;;;;;;;5016019;28;20021;-73
2023/04/26 07:53:11;;;;;;;5.78;3.63;;;;;;;;;;5024001;28;20034;-73
2023/04/26 07:55:37;;;;;;;9.68;5.05;;;;;;;;;;5018872;28;20116;-74
2023/04/26 07:58:03;;;;;;;5.57;3.33;;;;;;;;;;5029993;28;20073;-74
2023/04/26 08:00:29;;;;;;;6.57;3.50;;;;;;;;;;5015851;28;20056;-74
2023/04/26 08:02:56;;;;;;;6.97;4.35;;;;;;;;;;5013769;28;20476;-73
2023/04/26 08:05:22;;;;;;;9.70;3.70;;;;;;;;;;5013579;28;20369;-74
2023/04/26 08:07:48;;;;;;;8.02;3.33;;;;;;;;;;5014292;28;20106;-74
2023/04/26 08:10:14;;;;;;;3.50;3.10;;;;;;;;;;5023167;28;20070;-73
2023/04/26 08:12:40;;;;;;;6.97;3.42;;;;;;;;;;5027567;28;20063;-74
2023/04/26 08:15:07;;;;;;;6.25;4.03;;;;;;;;;;5028622;28;20464;-73
2023/04/26 08:17:33;;;;;;;8.52;3.78;;;;;;;;;;5018933;28;20036;-73
2023/04/26 08:19:59;;;;;;;5.45;3.45;;;;;;;;;;5028233;28;20033;-73
2023/04/26 08:22:26;;;;;;;8.98;4.13;;;;;;;;;;5013084;28;20025;-73
2023/04/26 08:24:54;;;;;;;10.25;3.92;;;;;;;;;;5029112;28;20025;-73
2023/04/26 08:27:20;;;;;;;7.60;4.00;;;;;;;;;;5017256;28;20014;-73
2023/04/26 08:29:47;;;;;;;7.45;3.97;;;;;;;;;;5022808;28;20049;-73
2023/04/26 08:32:13;;;;;;;6.95;4.38;;;;;;;;;;5014742;28;20037;-73
2023/04/26 08:34:39;;;;;;;7.43;3.50;;;;;;;;;;5028869;28;20076;-74
2023/04/26 08:37:08;;;;;;;7.65;4.10;;;;;;;;;;5011832;28;20032;-73
2023/04/26 08:39:34;;;;;;;5.75;3.45;;;;;;;;;;5018787;28;20030;-76
2023/04/26 08:42:05;;;;;;;4.78;3.10;;;;;;;;;;5000771;28;20105;-74
2023/04/26 08:44:37;;;;;;;10.65;3.45;;;;;;;;;;5025371;28;20041;-74
2023/04/26 08:47:12;;;;;;;7.55;3.38;;;;;;;;;;5026615;28;20022;-73
2023/04/26 08:49:42;;;;;;;4.75;3.30;;;;;;;;;;5024825;28;20026;-73
2023/04/26 08:52:10;;;;;;;4.82;3.17;;;;;;;;;;5022764;28;20475;-73
2023/04/26 08:54:36;;;;;;;8.60;3.67;;;;;;;;;;5021847;28;20101;-74
2023/04/26 08:57:03;;;;;;;5.72;3.28;;;;;;;;;;5026657;28;20483;-74
2023/04/26 08:59:39;;;;;;;5.15;3.25;;;;;;;;;;5025050;28;20479;-74
2023/04/26 09:02:06;;;;;;;7.70;3.42;;;;;;;;;;5026748;28;20041;-75
2023/04/26 09:04:32;;;;;;;5.28;3.65;;;;;;;;;;5031876;28;20022;-75
2023/04/26 09:07:00;;;;;;;4.78;2.78;;;;;;;;;;5027063;28;20041;-74
2023/04/26 09:09:27;;;;;;;8.13;4.00;;;;;;;;;;5022983;28;20093;-74
2023/04/26 09:11:58;;;;;;;4.75;3.15;;;;;;;;;;5022037;28;20029;-73
2023/04/26 09:14:25;;;;;;;4.65;2.90;;;;;;;;;;5029389;28;20152;-73
2023/04/26 09:16:51;;;;;;;4.28;2.90;;;;;;;;;;5026094;28;20531;-74
2023/04/26 09:19:18;;;;;;;5.30;3.38;;;;;;;;;;5024808;28;20026;-74
2023/04/26 09:21:45;;;;;;;4.97;2.83;;;;;;;;;;5022337;28;20026;-73
2023/04/26 09:24:12;;;;;;;6.55;3.63;;;;;;;;;;5022076;28;20510;-73
2023/04/26 09:26:38;;;;;;;7.05;3.05;;;;;;;;;;5020826;28;20025;-73
2023/04/26 09:29:11;;;;;;;5.70;2.78;;;;;;;;;;5020062;28;20079;-74
2023/04/26 09:31:39;;;;;;;7.22;3.25;;;;;;;;;;5021239;28;20026;-74
2023/04/26 09:34:05;;;;;;;4.20;2.75;;;;;;;;;;5022110;28;20045;-73
2023/04/26 09:36:31;;;;;;;7.68;2.95;;;;;;;;;;5027041;28;20108;-73
2023/04/26 09:38:57;;;;;;;6.35;3.28;;;;;;;;;;5026751;28;20048;-73
2023/04/26 09:41:23;;;;;;;5.63;3.00;;;;;;;;;;5015746;28;20076;-73
2023/04/26 09:43:50;;;;;;;5.55;3.40;;;;;;;;;;5010776;28;20040;-75
2023/04/26 09:46:24;;;;;;;6.28;3.00;;;;;;;;;;5024907;28;20359;-74
2023/04/26 09:49:01;;;;;;;3.13;2.83;;;;;;;;;;5018901;28;20194;-74
2023/04/26 09:51:27;;;;;;;6.75;2.95;;;;;;;;;;5019647;28;20088;-74
2023/04/26 09:53:53;;;;;;;3.63;2.90;;;;;;;;;;5021230;28;20030;-74
2023/04/26 09:56:20;;;;;;;4.20;2.80;;;;;;;;;;5031731;28;20041;-73
2023/04/26 09:58:47;;;;;;;3.80;2.75;;;;;;;;;;5015563;28;20037;-73
2023/04/26 10:01:17;;;;;;;4.20;3.00;;;;;;;;;;5020422;28;20141;-74
2023/04/26 10:03:44;;;;;;;8.48;3.17;;;;;;;;;;5010437;28;20060;-75
2023/04/26 10:06:12;;;;;;;5.70;2.85;;;;;;;;;;5013942;28;20440;-74
2023/04/26 10:08:38;;;;;;;4.95;2.80;;;;;;;;;;5038679;28;20048;-74
2023/04/26 10:11:14;;;;;;;7.82;3.10;;;;;;;;;;5027329;28;20033;-74
2023/04/26 10:13:41;;;;;;;7.80;2.83;;;;;;;;;;5012396;28;20026;-74
2023/04/26 10:16:08;;;;;;;5.07;3.15;;;;;;;;;;5027583;28;20105;-74
2023/04/26 10:18:34;;;;;;;5.10;2.58;;;;;;;;;;5023729;28;20033;-73
2023/04/26 10:21:11;;;;;;;6.50;3.25;;;;;;;;;;5016984;28;20109;-73
2023/04/26 10:23:38;;;;;;;4.78;3.60;;;;;;;;;;5021014;28;20025;-74
2023/04/26 10:26:04;;;;;;;4.80;3.10;;;;;;;;;;5022308;28;20026;-73
2023/04/26 10:28:45;;;;;;;5.53;3.30;;;;;;;;;;5012707;28;20017;-73
2023/04/26 10:31:11;;;;;;;3.63;2.53;;;;;;;;;;5011074;28;20037;-74
2023/04/26 10:33:37;;;;;;;3.90;2.80;;;;;;;;;;5010001;28;20459;-73
2023/04/26 10:36:04;;;;;;;4.03;2.63;;;;;;;;;;5019793;28;20049;-74
2023/04/26 10:38:30;;;;;;;3.25;2.47;;;;;;;;;;5015110;28;20044;-73
2023/04/26 10:41:16;;;;;;;6.38;3.03;;;;;;;;;;5016783;28;20025;-74
2023/04/26 10:43:42;;;;;;;5.40;2.80;;;;;;;;;;5023505;28;20690;-72
2023/04/26 10:46:26;;;;;;;4.25;3.03;;;;;;;;;;5033210;28;20390;-73
2023/04/26 10:48:53;;;;;;;5.72;2.95;;;;;;;;;;5015225;28;20080;-73
2023/04/26 10:51:19;;;;;;;4.07;2.80;;;;;;;;;;5021810;28;20026;-73
2023/04/26 10:53:50;;;;;;;5.28;2.90;;;;;;;;;;5024009;28;20108;-74
2023/04/26 10:56:23;;;;;;;5.38;2.80;;;;;;;;;;5025931;28;20057;-74
2023/04/26 10:59:06;;;;;;;8.10;4.55;;;;;;;;;;5018746;28;20032;-74
2023/04/26 11:01:32;;;;;;;6.10;3.28;;;;;;;;;;5010532;28;20118;-73
2023/04/26 11:03:58;;;;;;;4.70;3.42;;;;;;;;;;5026238;28;20030;-74
2023/04/26 11:06:28;;;;;;;5.32;3.05;;;;;;;;;;5029850;28;20028;-73
2023/04/26 11:08:54;;;;;;;5.78;2.75;;;;;;;;;;5020123;28;20022;-73
2023/04/26 11:11:25;;;;;;;5.13;3.20;;;;;;;;;;5016469;28;20029;-72
2023/04/26 11:13:51;;;;;;;8.55;3.33;;;;;;;;;;5012684;28;20022;-73
2023/04/26 11:16:17;;;;;;;7.95;3.08;;;;;;;;;;5022255;28;20423;-74
2023/04/26 11:18:45;;;;;;;6.40;4.03;;;;;;;;;;5019842;28;20025;-73
2023/04/26 11:21:14;;;;;;;6.22;3.95;;;;;;;;;;5017335;28;20029;-73
2023/04/26 11:23:40;;;;;;;5.13;2.80;;;;;;;;;;5017338;28;20025;-74
2023/04/26 11:26:09;;;;;;;5.93;2.90;;;;;;;;;;5019241;28;20026;-73
2023/04/26 11:28:37;;;;;;;3.95;2.42;;;;;;;;;;5018261;28;20022;-74
2023/04/26 11:31:03;;;;;;;7.53;2.80;;;;;;;;;;5024990;28;20155;-74
2023/04/26 11:33:30;;;;;;;5.93;3.17;;;;;;;;;;5017005;28;20032;-74
2023/04/26 11:35:56;;;;;;;4.78;2.33;;;;;;;;;;5027727;28;20475;-74
2023/04/26 11:38:23;;;;;;;7.47;3.15;;;;;;;;;;5025327;28;20080;-75
2023/04/26 11:40:53;;;;;;;4.28;3.03;;;;;;;;;;5023774;28;20029;-73
2023/04/26 11:43:19;;;;;;;5.30;2.80;;;;;;;;;;5022140;28;20072;-73
2023/04/26 11:45:45;;;;;;;8.00;3.10;;;;;;;;;;5021144;28;20041;-73
2023/04/26 11:48:12;;;;;;;5.38;3.22;;;;;;;;;;5023790;28;20101;-73
2023/04/26 11:50:38;;;;;;;5.90;2.78;;;;;;;;;;5026739;28;20029;-73
2023/04/26 11:53:06;;;;;;;6.15;3.10;;;;;;;;;;5026735;28;20373;-76
2023/04/26 11:55:33;;;;;;;6.05;3.00;;;;;;;;;;5023356;28;20025;-75
2023/04/26 11:58:00;;;;;;;5.40;2.85;;;;;;;;;;5022903;28;20120;-75
2023/04/26 12:00:27;;;;;;;4.22;3.25;;;;;;;;;;5021704;28;20028;-76
2023/04/26 12:02:54;;;;;;;6.57;2.95;;;;;;;;;;5025055;28;20026;-75
2023/04/26 12:05:21;;;;;;;6.45;3.25;;;;;;;;;;4996463;28;20645;-76
2023/04/26 12:07:51;;;;;;;9.23;3.50;;;;;;;;;;5016689;28;20124;-75
2023/04/26 12:10:18;;;;;;;4.60;2.63;;;;;;;;;;5013858;28;20164;-76
2023/04/26 12:12:49;;;;;;;4.05;2.80;;;;;;;;;;5015541;28;20376;-73
2023/04/26 12:15:16;;;;;;;4.22;2.53;;;;;;;;;;5019860;28;20026;-75
2023/04/26 12:17:51;;;;;;;3.95;2.97;;;;;;;;;;5021075;28;20033;-75
2023/04/26 12:20:17;;;;;;;5.82;3.08;;;;;;;;;;5014301;28;20388;-75
2023/04/26 12:23:04;;;;;;;6.95;3.83;;;;;;;;;;5022885;28;20034;-75
2023/04/26 12:25:31;;;;;;;5.10;2.75;;;;;;;;;;5002984;28;20021;-74
2023/04/26 12:27:57;;;;;;;8.02;3.55;;;;;;;;;;5020080;28;20034;-74
2023/04/26 12:30:23;;;;;;;5.28;3.20;;;;;;;;;;5018007;28;20179;-74
2023/04/26 12:32:49;;;;;;;4.97;3.08;;;;;;;;;;5019587;28;20488;-71
2023/04/26 12:35:16;;;;;;;5.35;2.80;;;;;;;;;;5016910;28;20423;-75
2023/04/26 12:37:42;;;;;;;4.15;2.95;;;;;;;;;;5015508;28;20028;-74
2023/04/26 12:40:09;;;;;;;5.35;2.95;;;;;;;;;;5018584;28;20072;-73
2023/04/26 12:42:35;;;;;;;5.18;2.78;;;;;;;;;;5016828;28;20112;-72
2023/04/26 12:45:01;;;;;;;3.85;2.95;;;;;;;;;;5019260;28;20033;-74
2023/04/26 12:47:27;;;;;;;5.15;3.25;;;;;;;;;;5015485;28;20076;-74
2023/04/26 12:49:53;;;;;;;4.18;2.92;;;;;;;;;;5013197;28;20033;-74
2023/04/26 12:52:19;;;;;;;4.38;3.05;;;;;;;;;;5015268;28;20044;-73
2023/04/26 12:54:47;;;;;;;5.60;3.67;;;;;;;;;;5015704;28;20053;-74
2023/04/26 12:57:14;;;;;;;2.95;2.58;;;;;;;;;;5016330;28;20045;-74
2023/04/26 12:59:40;;;;;;;3.78;3.33;;;;;;;;;;5004723;28;20083;-74
2023/04/26 13:02:07;;;;;;;6.20;3.60;;;;;;;;;;5023354;28;20505;-75
2023/04/26 13:04:34;;;;;;;9.25;3.63;;;;;;;;;;5020200;28;20113;-72
2023/04/26 13:07:00;;;;;;;8.45;3.70;;;;;;;;;;5026382;28;20091;-73
2023/04/26 13:09:26;;;;;;;7.38;3.25;;;;;;;;;;5017626;28;20022;-75
2023/04/26 13:11:52;;;;;;;6.60;3.03;;;;;;;;;;5017985;28;20044;-73
2023/04/26 13:14:18;;;;;;;4.43;2.90;;;;;;;;;;5016306;28;20673;-74
2023/04/26 13:16:45;;;;;;;4.78;3.10;;;;;;;;;;5020901;28;20488;-75
2023/04/26 13:19:11;;;;;;;5.85;3.90;;;;;;;;;;5016014;28;20034;-74
2023/04/26 13:21:37;;;;;;;5.43;2.55;;;;;;;;;;5020626;28;20064;-74
2023/04/26 13:24:03;;;;;;;6.28;3.47;;;;;;;;;;5018350;28;20029;-75
2023/04/26 13:26:29;;;;;;;4.63;2.60;;;;;;;;;;5014736;28;20542;-74
2023/04/26 13:28:55;;;;;;;7.97;2.70;;;;;;;;;;5021924;28;20028;-74
2023/04/26 13:31:21;;;;;;;5.97;2.58;;;;;;;;;;5016393;28;20038;-72
2023/04/26 13:33:49;;;;;;;5.68;2.85;;;;;;;;;;5003120;28;20034;-75
2023/04/26 13:36:15;;;;;;;3.42;2.65;;;;;;;;;;5020181;28;20033;-77
2023/04/26 13:38:42;;;;;;;4.88;2.80;;;;;;;;;;5016196;28;20048;-76
2023/04/26 13:41:08;;;;;;;6.45;2.58;;;;;;;;;;5019877;28;20049;-76
2023/04/26 13:43:34;;;;;;;4.07;2.30;;;;;;;;;;5015465;28;20329;-76
2023/04/26 13:46:01;;;;;;;5.78;3.08;;;;;;;;;;5015607;28;20084;-76
2023/04/26 13:48:27;;;;;;;4.95;2.63;;;;;;;;;;5013650;28;20482;-76
2023/04/26 13:50:55;;;;;;;3.20;2.30;;;;;;;;;;5019023;28;20079;-76
2023/04/26 13:53:21;;;;;;;3.40;2.50;;;;;;;;;;5014328;28;20029;-76
2023/04/26 13:55:50;;;;;;;5.22;2.55;;;;;;;;;;5013882;28;20037;-76
2023/04/26 13:58:16;;;;;;;6.05;2.78;;;;;;;;;;5015013;28;20034;-75
2023/04/26 14:00:42;;;;;;;3.67;2.58;;;;;;;;;;5022284;28;20070;-75
2023/04/26 14:03:09;;;;;;;4.90;3.15;;;;;;;;;;5012570;28;20030;-76
2023/04/26 14:05:35;;;;;;;3.80;2.50;;;;;;;;;;5022705;28;20025;-76
2023/04/26 14:08:01;;;;;;;3.28;2.53;;;;;;;;;;5023247;28;20144;-76
2023/04/26 14:10:27;;;;;;;4.40;2.60;;;;;;;;;;5020295;28;20030;-76
2023/04/26 14:12:55;;;;;;;4.00;2.38;;;;;;;;;;5019194;28;20025;-77
2023/04/26 14:15:21;;;;;;;7.03;3.00;;;;;;;;;;5014793;28;20543;-77
2023/04/26 14:17:47;;;;;;;5.35;2.67;;;;;;;;;;5017525;28;20473;-77
2023/04/26 14:20:13;;;;;;;3.30;2.42;;;;;;;;;;5006000;28;20434;-75
2023/04/26 14:22:40;;;;;;;5.05;2.90;;;;;;;;;;5006916;28;20359;-76
2023/04/26 14:25:06;;;;;;;6.70;2.88;;;;;;;;;;5020803;28;20130;-76
2023/04/26 14:27:32;;;;;;;4.50;2.50;;;;;;;;;;5013372;28;20022;-76
2023/04/26 14:29:58;;;;;;;5.53;2.92;;;;;;;;;;5025482;28;20021;-76
2023/04/26 14:32:24;;;;;;;5.45;2.85;;;;;;;;;;5017406;28;20110;-77
2023/04/26 14:34:50;;;;;;;5.53;2.90;;;;;;;;;;5031132;28;20029;-78
2023/04/26 14:37:21;;;;;;;5.57;2.63;;;;;;;;;;5019526;28;20038;-76
2023/04/26 14:39:47;;;;;;;4.47;3.17;;;;;;;;;;5021377;28;20471;-76
2023/04/26 14:42:13;;;;;;;4.22;2.30;;;;;;;;;;5011437;28;20475;-76